createdAt,value
2023-05-08T00:02:18.767Z,19.40
2023-05-08T00:04:47.408Z,19.40
2023-05-08T00:07:16.024Z,19.40
2023-05-08T00:09:44.561Z,19.40
2023-05-08T00:12:13.143Z,19.30
2023-05-08T00:14:43.054Z,19.30
2023-05-08T00:17:11.133Z,19.30
2023-05-08T00:19:39.215Z,19.20
2023-05-08T00:22:07.262Z,19.20
2023-05-08T00:24:35.816Z,19.20
2023-05-08T00:27:03.981Z,19.20
2023-05-08T00:29:32.564Z,19.10
2023-05-08T00:32:02.345Z,19.10
2023-05-08T00:34:31.051Z,19.10
2023-05-08T00:36:59.210Z,19.00
2023-05-08T00:39:27.828Z,19.00
2023-05-08T00:41:55.932Z,18.90
2023-05-08T00:44:24.081Z,18.90
2023-05-08T00:46:52.412Z,18.90
2023-05-08T00:49:22.614Z,18.90
2023-05-08T00:51:54.505Z,18.80
2023-05-08T00:54:23.575Z,18.80
2023-05-08T00:56:53.673Z,18.80
2023-05-08T00:59:23.350Z,18.70
2023-05-08T01:01:53.640Z,18.70
2023-05-08T01:04:26.652Z,18.70
2023-05-08T01:06:54.742Z,18.60
2023-05-08T01:09:23.328Z,18.60
2023-05-08T01:11:57.456Z,18.60
2023-05-08T01:14:32.565Z,18.50
2023-05-08T01:17:10.834Z,18.50
2023-05-08T01:19:59.829Z,18.50
2023-05-08T01:22:42.899Z,18.40
2023-05-08T01:25:53.214Z,18.40
2023-05-08T01:28:39.816Z,18.40
2023-05-08T01:31:20.214Z,18.30
2023-05-08T01:33:56.388Z,18.20
2023-05-08T01:36:30.220Z,18.20
2023-05-08T01:39:11.667Z,18.20
2023-05-08T01:41:42.417Z,18.10
2023-05-08T01:44:17.072Z,18.10
2023-05-08T01:46:51.565Z,18.10
2023-05-08T01:49:26.223Z,18.10
2023-05-08T01:52:01.058Z,18.00
2023-05-08T01:54:35.488Z,18.00
2023-05-08T01:57:05.180Z,18.00
2023-05-08T01:59:37.132Z,17.90
2023-05-08T02:02:06.860Z,17.90
2023-05-08T02:04:36.934Z,17.90
2023-05-08T02:07:05.677Z,17.90
2023-05-08T02:09:34.110Z,17.90
2023-05-08T02:12:04.560Z,17.80
2023-05-08T02:14:34.446Z,17.80
2023-05-08T02:17:04.563Z,17.80
2023-05-08T02:19:35.459Z,17.80
2023-05-08T02:22:06.923Z,17.80
2023-05-08T02:24:37.274Z,17.80
2023-05-08T02:27:06.767Z,17.70
2023-05-08T02:29:36.267Z,17.70
2023-05-08T02:32:07.781Z,17.70
2023-05-08T02:34:40.937Z,17.70
2023-05-08T02:37:15.912Z,17.70
2023-05-08T02:39:45.566Z,17.60
2023-05-08T02:42:14.162Z,17.60
2023-05-08T02:44:42.944Z,17.60
2023-05-08T02:47:18.042Z,17.60
2023-05-08T02:49:53.441Z,17.60
2023-05-08T02:52:31.146Z,17.60
2023-05-08T02:55:02.532Z,17.60
2023-05-08T02:57:39.601Z,17.60
2023-05-08T03:00:14.740Z,17.50
2023-05-08T03:02:45.941Z,17.50
2023-05-08T03:05:18.515Z,17.50
2023-05-08T03:07:54.245Z,17.50
2023-05-08T03:10:27.542Z,17.40
2023-05-08T03:12:58.313Z,17.40
2023-05-08T03:15:29.697Z,17.40
2023-05-08T03:18:01.956Z,17.40
2023-05-08T03:20:35.304Z,17.40
2023-05-08T03:23:05.674Z,17.30
2023-05-08T03:25:37.093Z,17.30
2023-05-08T03:28:07.668Z,17.30
2023-05-08T03:30:38.584Z,17.20
2023-05-08T03:33:07.986Z,17.20
2023-05-08T03:35:37.456Z,17.20
2023-05-08T03:38:08.583Z,17.20
2023-05-08T03:40:38.788Z,17.20
2023-05-08T03:43:08.955Z,17.20
2023-05-08T03:45:38.074Z,17.10
2023-05-08T03:48:08.112Z,17.10
2023-05-08T03:50:38.640Z,17.10
2023-05-08T03:53:08.678Z,17.10
2023-05-08T03:55:37.849Z,17.10
2023-05-08T03:58:16.699Z,17.10
2023-05-08T04:00:55.750Z,17.00
2023-05-08T04:03:29.147Z,17.10
2023-05-08T04:06:06.034Z,17.10
2023-05-08T04:08:42.443Z,17.00
2023-05-08T04:11:26.391Z,17.00
2023-05-08T04:13:58.915Z,17.00
2023-05-08T04:16:30.253Z,17.00
2023-05-08T04:19:04.159Z,17.00
2023-05-08T04:21:36.363Z,17.00
2023-05-08T04:24:08.770Z,16.90
2023-05-08T04:26:37.187Z,16.90
2023-05-08T04:29:06.336Z,16.90
2023-05-08T04:31:37.195Z,16.90
2023-05-08T04:34:05.737Z,16.80
2023-05-08T04:36:33.988Z,16.80
2023-05-08T04:39:02.129Z,16.80
2023-05-08T04:41:32.307Z,16.80
2023-05-08T04:44:00.752Z,16.80
2023-05-08T04:46:29.342Z,16.80
2023-05-08T04:48:57.965Z,16.80
2023-05-08T04:51:26.815Z,16.80
2023-05-08T04:53:54.860Z,16.80
2023-05-08T04:56:23.034Z,16.80
2023-05-08T04:58:52.967Z,16.80
2023-05-08T05:01:21.098Z,16.80
2023-05-08T05:03:49.763Z,16.80
2023-05-08T05:06:17.892Z,16.80
2023-05-08T05:08:45.969Z,16.80
2023-05-08T05:11:14.540Z,16.80
2023-05-08T05:13:42.676Z,16.80
2023-05-08T05:16:13.917Z,16.80
2023-05-08T05:18:42.002Z,16.80
2023-05-08T05:21:11.545Z,16.80
2023-05-08T05:23:40.093Z,16.80
2023-05-08T05:26:08.737Z,16.80
2023-05-08T05:28:37.326Z,16.80
2023-05-08T05:31:06.305Z,16.80
2023-05-08T05:33:36.237Z,16.80
2023-05-08T05:36:04.483Z,16.80
2023-05-08T05:38:33.026Z,16.90
2023-05-08T05:41:01.094Z,16.90
2023-05-08T05:43:29.633Z,16.90
2023-05-08T05:45:58.164Z,17.00
2023-05-08T05:48:26.235Z,17.00
2023-05-08T05:50:55.706Z,18.60
2023-05-08T05:53:23.796Z,17.00
2023-05-08T05:55:52.378Z,17.10
2023-05-08T05:58:20.851Z,17.10
2023-05-08T06:00:49.103Z,17.10
2023-05-08T06:03:17.258Z,17.10
2023-05-08T06:05:47.558Z,17.10
2023-05-08T06:08:17.990Z,17.20
2023-05-08T06:10:46.055Z,17.20
2023-05-08T06:13:14.180Z,17.20
2023-05-08T06:15:42.529Z,17.30
2023-05-08T06:18:11.176Z,17.30
2023-05-08T06:20:39.986Z,17.30
2023-05-08T06:23:08.619Z,17.30
2023-05-08T06:25:38.544Z,17.30
2023-05-08T06:28:08.109Z,17.40
2023-05-08T06:30:36.210Z,17.40
2023-05-08T06:33:04.926Z,17.40
2023-05-08T06:35:33.097Z,17.50
2023-05-08T06:38:01.460Z,17.50
2023-05-08T06:40:30.037Z,17.50
2023-05-08T06:42:59.521Z,17.60
2023-05-08T06:45:27.574Z,17.60
2023-05-08T06:47:55.771Z,17.60
2023-05-08T06:50:24.607Z,17.60
2023-05-08T06:52:53.234Z,17.70
2023-05-08T06:55:21.530Z,17.70
2023-05-08T06:57:49.637Z,17.70
2023-05-08T07:00:19.879Z,17.80
2023-05-08T07:02:47.981Z,17.80
2023-05-08T07:05:17.011Z,17.90
2023-05-08T07:07:45.456Z,17.90
2023-05-08T07:10:14.005Z,18.00
2023-05-08T07:12:42.131Z,18.00
2023-05-08T07:15:24.762Z,18.00
2023-05-08T07:17:56.076Z,18.10
2023-05-08T07:20:24.909Z,18.10
2023-05-08T07:22:53.548Z,18.20
2023-05-08T07:25:21.754Z,18.20
2023-05-08T07:27:50.308Z,18.20
2023-05-08T07:30:18.525Z,18.30
2023-05-08T07:32:47.106Z,18.30
2023-05-08T07:35:16.960Z,18.30
2023-05-08T07:37:45.244Z,18.40
2023-05-08T07:40:13.988Z,18.50
2023-05-08T07:42:43.582Z,18.50
2023-05-08T07:45:14.147Z,18.50
2023-05-08T07:47:51.336Z,18.50
2023-05-08T07:50:21.288Z,18.60
2023-05-08T07:52:50.591Z,18.70
2023-05-08T07:55:19.990Z,18.70
2023-05-08T07:57:48.100Z,18.70
2023-05-08T08:00:17.751Z,18.80
2023-05-08T08:02:46.545Z,18.80
2023-05-08T08:05:15.500Z,18.80
2023-05-08T08:07:45.358Z,18.90
2023-05-08T08:10:14.259Z,18.90
2023-05-08T08:12:42.872Z,19.00
2023-05-08T08:15:12.491Z,19.00
2023-05-08T08:17:41.415Z,19.10
2023-05-08T08:20:10.712Z,19.10
2023-05-08T08:22:39.653Z,19.20
2023-05-08T08:25:10.885Z,19.20
2023-05-08T08:27:39.660Z,19.20
2023-05-08T08:30:17.462Z,19.30
2023-05-08T08:32:47.502Z,19.30
2023-05-08T08:35:16.896Z,19.40
2023-05-08T08:37:45.833Z,19.40
2023-05-08T08:40:15.330Z,19.40
2023-05-08T08:42:43.903Z,19.50
2023-05-08T08:45:13.323Z,19.50
2023-05-08T08:47:44.418Z,19.50
2023-05-08T08:50:16.332Z,19.60
2023-05-08T08:52:54.518Z,19.60
2023-05-08T08:55:27.096Z,19.60
2023-05-08T08:58:08.917Z,19.70
2023-05-08T09:00:38.894Z,19.70
2023-05-08T09:03:07.941Z,19.70
2023-05-08T09:05:37.301Z,19.70
2023-05-08T09:08:07.137Z,19.70
2023-05-08T09:10:37.660Z,19.70
2023-05-08T09:13:05.913Z,19.70
2023-05-08T09:15:34.933Z,19.80
2023-05-08T09:18:03.674Z,19.80
2023-05-08T09:20:32.426Z,19.80
2023-05-08T09:23:03.295Z,19.90
2023-05-08T09:25:44.682Z,19.90
2023-05-08T09:28:19.280Z,19.90
2023-05-08T09:30:52.885Z,20.00
2023-05-08T09:33:21.799Z,20.00
2023-05-08T09:35:50.931Z,20.10
2023-05-08T09:38:35.892Z,20.10
2023-05-08T09:41:14.919Z,20.20
2023-05-08T09:43:43.795Z,20.20
2023-05-08T09:46:26.837Z,20.20
2023-05-08T09:48:56.789Z,20.30
2023-05-08T09:51:26.886Z,20.30
2023-05-08T09:53:56.336Z,20.40
2023-05-08T09:56:33.738Z,20.40
2023-05-08T09:59:03.364Z,20.40
2023-05-08T10:01:33.179Z,20.50
2023-05-08T10:04:02.151Z,20.50
2023-05-08T10:06:31.454Z,20.60
2023-05-08T10:09:13.002Z,20.60
2023-05-08T10:11:43.789Z,20.60
2023-05-08T10:14:12.337Z,20.70
2023-05-08T10:16:44.763Z,20.70
2023-05-08T10:19:16.210Z,20.70
2023-05-08T10:21:48.384Z,20.70
2023-05-08T10:24:18.008Z,20.80
2023-05-08T10:27:06.748Z,20.90
2023-05-08T10:29:43.133Z,20.90
2023-05-08T10:32:14.749Z,20.90
2023-05-08T10:34:45.637Z,21.00
2023-05-08T10:37:14.757Z,21.00
2023-05-08T10:39:45.586Z,21.10
2023-05-08T10:42:15.996Z,21.10
2023-05-08T10:44:44.680Z,21.20
2023-05-08T10:47:20.665Z,21.20
2023-05-08T10:49:56.928Z,21.20
2023-05-08T10:52:35.096Z,21.30
2023-05-08T10:55:18.103Z,21.30
2023-05-08T10:58:06.459Z,21.40
2023-05-08T11:01:07.222Z,21.40
2023-05-08T11:03:41.223Z,21.40
2023-05-08T11:06:09.688Z,21.40
2023-05-08T11:08:47.183Z,21.40
2023-05-08T11:11:29.108Z,21.40
2023-05-08T11:14:11.262Z,21.40
2023-05-08T11:17:04.770Z,21.40
2023-05-08T11:19:33.473Z,21.40
2023-05-08T11:22:25.278Z,21.40
2023-05-08T11:24:58.656Z,21.40
2023-05-08T11:28:02.723Z,21.40
2023-05-08T11:30:39.790Z,21.40
2023-05-08T11:33:31.031Z,21.40
2023-05-08T11:36:01.040Z,21.50
2023-05-08T11:38:34.267Z,21.50
2023-05-08T11:41:08.842Z,21.50
2023-05-08T11:44:15.192Z,21.50
2023-05-08T11:46:51.889Z,21.60
2023-05-08T11:49:25.965Z,21.60
2023-05-08T11:51:59.882Z,21.60
2023-05-08T11:54:31.792Z,21.60
2023-05-08T11:57:00.081Z,21.60
2023-05-08T11:59:28.670Z,21.60
2023-05-08T12:02:07.820Z,21.70
2023-05-08T12:04:46.143Z,21.60
2023-05-08T12:07:14.343Z,21.70
2023-05-08T12:09:43.007Z,21.70
2023-05-08T12:12:11.574Z,21.70
2023-05-08T12:14:39.698Z,21.60
2023-05-08T12:17:09.710Z,21.60
2023-05-08T12:19:38.351Z,21.60
2023-05-08T12:22:06.985Z,21.60
2023-05-08T12:24:35.576Z,21.60
2023-05-08T12:27:04.696Z,21.60
2023-05-08T12:29:37.700Z,21.60
2023-05-08T12:32:06.615Z,21.60
2023-05-08T12:34:37.606Z,21.60
2023-05-08T12:37:06.111Z,21.60
2023-05-08T12:39:38.916Z,21.60
2023-05-08T12:42:07.106Z,21.60
2023-05-08T12:44:35.666Z,21.70
2023-05-08T12:47:06.300Z,21.60
2023-05-08T12:49:36.255Z,21.70
2023-05-08T12:52:06.654Z,21.70
2023-05-08T12:54:36.789Z,21.70
2023-05-08T12:57:11.808Z,21.80
2023-05-08T12:59:40.206Z,21.80
2023-05-08T13:02:16.758Z,21.90
2023-05-08T13:04:47.259Z,21.90
2023-05-08T13:07:15.597Z,21.90
2023-05-08T13:09:59.225Z,22.00
2023-05-08T13:12:27.338Z,22.00
2023-05-08T13:14:55.932Z,22.00
2023-05-08T13:17:24.595Z,22.10
2023-05-08T13:19:54.082Z,22.10
2023-05-08T13:22:26.981Z,22.10
2023-05-08T13:24:55.184Z,22.20
2023-05-08T13:27:24.020Z,22.20
2023-05-08T13:29:52.540Z,22.20
2023-05-08T13:32:21.291Z,22.20
2023-05-08T13:34:51.625Z,22.30
2023-05-08T13:37:23.541Z,22.30
2023-05-08T13:39:52.106Z,22.40
2023-05-08T13:42:20.210Z,22.40
2023-05-08T13:44:48.742Z,22.50
2023-05-08T13:47:16.852Z,22.50
2023-05-08T13:49:47.435Z,22.50
2023-05-08T13:52:15.983Z,22.60
2023-05-08T13:54:45.956Z,22.60
2023-05-08T13:57:14.026Z,22.60
2023-05-08T13:59:42.607Z,22.70
2023-05-08T14:02:11.463Z,22.70
2023-05-08T14:04:39.715Z,22.70
2023-05-08T14:07:08.398Z,22.70
2023-05-08T14:09:36.933Z,22.70
2023-05-08T14:12:07.254Z,22.70
2023-05-08T14:14:35.828Z,22.70
2023-05-08T14:17:05.539Z,22.70
2023-05-08T14:19:33.707Z,22.70
2023-05-08T14:22:02.668Z,22.80
2023-05-08T14:24:31.306Z,22.80
2023-05-08T14:26:59.711Z,22.90
2023-05-08T14:29:29.676Z,22.90
2023-05-08T14:31:57.868Z,23.00
2023-05-08T14:34:26.589Z,23.00
2023-05-08T14:36:54.826Z,23.00
2023-05-08T14:39:23.545Z,23.00
2023-05-08T14:42:14.398Z,23.00
2023-05-08T14:44:41.660Z,23.00
2023-05-08T14:47:09.749Z,23.00
2023-05-08T14:49:38.946Z,22.90
2023-05-08T14:52:07.395Z,22.80
2023-05-08T14:54:36.216Z,22.80
2023-05-08T14:57:04.908Z,22.70
2023-05-08T14:59:32.981Z,22.70
2023-05-08T15:02:02.982Z,22.70
2023-05-08T15:04:31.641Z,22.60
2023-05-08T15:07:00.191Z,22.60
2023-05-08T15:09:28.768Z,22.50
2023-05-08T15:11:57.326Z,22.50
2023-05-08T15:14:26.893Z,22.50
2023-05-08T15:16:55.415Z,22.40
2023-05-08T15:19:24.854Z,22.40
2023-05-08T15:21:53.411Z,22.40
2023-05-08T15:24:21.933Z,22.30
2023-05-08T15:26:50.307Z,22.30
2023-05-08T15:29:18.356Z,22.30
2023-05-08T15:31:46.506Z,22.20
2023-05-08T15:34:14.761Z,22.20
2023-05-08T15:36:44.204Z,22.30
2023-05-08T15:39:12.313Z,22.20
2023-05-08T15:41:41.337Z,22.20
2023-05-08T15:44:09.548Z,22.10
2023-05-08T15:46:38.260Z,22.20
2023-05-08T15:49:06.511Z,22.10
2023-05-08T15:51:34.646Z,22.10
2023-05-08T15:54:04.090Z,22.10
2023-05-08T15:56:32.717Z,22.00
2023-05-08T15:59:01.211Z,22.00
2023-05-08T16:01:29.300Z,22.00
2023-05-08T16:03:57.651Z,22.00
2023-05-08T16:06:26.367Z,21.90
2023-05-08T16:08:56.375Z,21.90
2023-05-08T16:11:25.928Z,21.90
2023-05-08T16:13:54.019Z,21.90
2023-05-08T16:16:22.323Z,21.90
2023-05-08T16:18:50.481Z,21.90
2023-05-08T16:21:18.534Z,21.80
2023-05-08T16:23:47.802Z,21.80
2023-05-08T16:26:16.694Z,21.80
2023-05-08T16:28:46.127Z,21.80
2023-05-08T16:31:14.732Z,21.70
2023-05-08T16:33:43.013Z,21.70
2023-05-08T16:36:12.598Z,21.70
2023-05-08T16:38:41.167Z,21.70
2023-05-08T16:41:10.570Z,21.70
2023-05-08T16:43:38.670Z,21.70
2023-05-08T16:46:08.997Z,21.70
2023-05-08T16:48:37.634Z,21.60
2023-05-08T16:51:05.675Z,21.60
2023-05-08T16:53:34.210Z,21.60
2023-05-08T16:56:02.299Z,21.50
2023-05-08T16:58:30.873Z,21.50
2023-05-08T17:00:58.948Z,21.50
2023-05-08T17:03:29.046Z,21.50
2023-05-08T17:05:57.427Z,21.40
2023-05-08T17:08:25.465Z,21.40
2023-05-08T17:10:54.696Z,21.40
2023-05-08T17:13:22.795Z,21.40
2023-05-08T17:15:51.509Z,21.30
2023-05-08T17:18:20.242Z,21.30
2023-05-08T17:20:50.125Z,21.30
2023-05-08T17:23:18.226Z,21.30
2023-05-08T17:25:46.769Z,21.20
2023-05-08T17:28:15.313Z,21.20
2023-05-08T17:30:43.383Z,21.20
2023-05-08T17:33:11.962Z,21.20
2023-05-08T17:35:40.035Z,21.10
2023-05-08T17:38:09.631Z,21.10
2023-05-08T17:40:39.503Z,21.10
2023-05-08T17:43:08.622Z,21.10
2023-05-08T17:45:37.318Z,21.10
2023-05-08T17:48:06.416Z,21.10
2023-05-08T17:50:35.363Z,21.00
2023-05-08T17:53:03.969Z,21.00
2023-05-08T17:55:34.586Z,21.00
2023-05-08T17:58:02.657Z,21.00
2023-05-08T18:00:31.212Z,21.00
2023-05-08T18:02:59.421Z,20.90
2023-05-08T18:05:29.005Z,20.90
2023-05-08T18:07:57.091Z,20.90
2023-05-08T18:10:26.069Z,20.90
2023-05-08T18:12:55.560Z,20.90
2023-05-08T18:15:23.652Z,20.80
2023-05-08T18:17:53.547Z,20.80
2023-05-08T18:20:23.571Z,20.80
2023-05-08T18:22:52.385Z,20.80
2023-05-08T18:25:21.147Z,20.70
2023-05-08T18:27:50.603Z,20.70
2023-05-08T18:30:20.099Z,20.70
2023-05-08T18:32:48.230Z,20.70
2023-05-08T18:35:17.286Z,20.70
2023-05-08T18:37:45.378Z,20.70
2023-05-08T18:40:14.878Z,20.60
2023-05-08T18:42:43.878Z,20.60
2023-05-08T18:45:13.502Z,20.60
2023-05-08T18:47:43.014Z,20.50
2023-05-08T18:50:12.058Z,20.50
2023-05-08T18:52:40.898Z,20.50
2023-05-08T18:55:09.762Z,20.50
2023-05-08T18:57:38.295Z,20.40
2023-05-08T19:00:08.077Z,20.40
2023-05-08T19:02:36.280Z,20.30
2023-05-08T19:05:07.012Z,20.30
2023-05-08T19:07:35.536Z,20.30
2023-05-08T19:10:03.645Z,20.20
2023-05-08T19:12:32.198Z,20.20
2023-05-08T19:15:00.315Z,20.20
2023-05-08T19:17:28.447Z,20.20
2023-05-08T19:19:56.559Z,20.20
2023-05-08T19:22:26.003Z,20.10
2023-05-08T19:24:54.047Z,20.10
2023-05-08T19:27:22.426Z,20.10
2023-05-08T19:29:50.664Z,20.10
2023-05-08T19:32:18.768Z,20.00
2023-05-08T19:34:47.452Z,20.00
2023-05-08T19:37:15.529Z,19.90
2023-05-08T19:39:45.605Z,19.90
2023-05-08T19:42:13.960Z,19.80
2023-05-08T19:44:42.507Z,19.80
2023-05-08T19:47:10.585Z,19.70
2023-05-08T19:49:39.170Z,19.70
2023-05-08T19:52:07.994Z,19.70
2023-05-08T19:54:36.067Z,19.60
2023-05-08T19:57:06.046Z,19.60
2023-05-08T19:59:34.081Z,19.50
2023-05-08T20:02:03.545Z,19.50
2023-05-08T20:04:33.923Z,19.50
2023-05-08T20:07:11.705Z,19.40
2023-05-08T20:09:39.769Z,19.40
2023-05-08T20:12:11.805Z,19.30
2023-05-08T20:14:39.909Z,19.30
2023-05-08T20:17:08.490Z,19.30
2023-05-08T20:19:36.706Z,19.20
2023-05-08T20:22:05.281Z,19.20
2023-05-08T20:24:33.537Z,19.10
2023-05-08T20:27:01.630Z,19.10
2023-05-08T20:29:31.163Z,19.10
2023-05-08T20:31:59.800Z,19.10
2023-05-08T20:34:28.412Z,19.00
2023-05-08T20:36:59.126Z,19.00
2023-05-08T20:39:27.739Z,19.00
2023-05-08T20:41:55.793Z,19.00
2023-05-08T20:44:23.952Z,18.90
2023-05-08T20:46:54.008Z,19.00
2023-05-08T20:49:22.067Z,18.90
2023-05-08T20:51:50.230Z,18.90
2023-05-08T20:54:18.311Z,17.80
2023-05-08T20:56:46.796Z,18.90
2023-05-08T20:59:16.516Z,18.90
2023-05-08T21:01:44.621Z,18.80
2023-05-08T21:04:14.634Z,18.80
2023-05-08T21:06:42.983Z,18.80
2023-05-08T21:09:11.477Z,18.90
2023-05-08T21:11:39.579Z,18.80
2023-05-08T21:14:07.642Z,18.80
2023-05-08T21:16:36.076Z,18.80
2023-05-08T21:19:04.199Z,18.80
2023-05-08T21:21:34.168Z,18.80
2023-05-08T21:24:02.668Z,18.80
2023-05-08T21:26:30.721Z,18.80
2023-05-08T21:29:00.637Z,18.70
2023-05-08T21:31:29.177Z,18.70
2023-05-08T21:33:57.692Z,18.70
2023-05-08T21:36:25.844Z,18.70
2023-05-08T21:38:55.744Z,18.70
2023-05-08T21:41:24.388Z,18.70
2023-05-08T21:43:52.424Z,18.70
2023-05-08T21:46:20.538Z,18.70
2023-05-08T21:48:49.109Z,18.70
2023-05-08T21:51:17.176Z,18.60
2023-05-08T21:53:45.289Z,18.60
2023-05-08T21:56:15.164Z,18.60
2023-05-08T21:58:43.182Z,18.60
2023-05-08T22:01:11.817Z,18.60
2023-05-08T22:03:40.020Z,18.60
2023-05-08T22:06:09.002Z,18.50
2023-05-08T22:08:37.584Z,18.50
2023-05-08T22:11:05.983Z,18.50
2023-05-08T22:13:36.127Z,18.50
2023-05-08T22:16:04.206Z,18.50
2023-05-08T22:18:32.769Z,18.40
2023-05-08T22:21:00.829Z,18.40
2023-05-08T22:23:29.374Z,18.40
2023-05-08T22:25:57.437Z,18.40
2023-05-08T22:28:25.555Z,18.30
2023-05-08T22:30:55.534Z,18.40
2023-05-08T22:33:23.595Z,17.10
2023-05-08T22:35:52.553Z,18.30
2023-05-08T22:38:21.081Z,18.30
2023-05-08T22:40:49.600Z,18.30
2023-05-08T22:43:17.689Z,18.30
2023-05-08T22:45:46.484Z,18.30
2023-05-08T22:48:16.503Z,18.20
2023-05-08T22:50:45.228Z,18.20
2023-05-08T22:53:13.742Z,18.20
2023-05-08T22:55:41.759Z,18.20
2023-05-08T22:58:10.276Z,18.20
2023-05-08T23:00:38.796Z,18.20
2023-05-08T23:03:07.345Z,18.10
2023-05-08T23:05:36.870Z,18.10
2023-05-08T23:08:05.529Z,18.10
2023-05-08T23:10:34.053Z,18.10
2023-05-08T23:13:02.155Z,18.10
2023-05-08T23:15:30.859Z,18.10
2023-05-08T23:17:59.476Z,18.10
2023-05-08T23:20:28.307Z,18.10
2023-05-08T23:22:57.719Z,18.00
2023-05-08T23:25:26.552Z,18.00
2023-05-08T23:27:54.597Z,18.00
2023-05-08T23:30:23.159Z,18.00
2023-05-08T23:32:51.741Z,18.00
2023-05-08T23:35:19.932Z,18.00
2023-05-08T23:37:48.517Z,18.00
2023-05-08T23:40:18.472Z,18.00
2023-05-08T23:42:47.005Z,17.90
2023-05-08T23:45:15.277Z,18.00
2023-05-08T23:47:43.986Z,17.90
2023-05-08T23:50:13.168Z,17.90
2023-05-08T23:52:42.723Z,17.90
2023-05-08T23:55:12.073Z,17.90
2023-05-08T23:57:41.708Z,17.90
